createdAt,value
2022-10-20T00:00:03.469Z,88.00
2022-10-20T00:01:03.499Z,88.00
2022-10-20T00:02:02.787Z,88.00
2022-10-20T00:03:02.755Z,88.00
2022-10-20T00:04:03.039Z,88.00
2022-10-20T00:05:02.769Z,87.00
2022-10-20T00:06:02.754Z,88.00
2022-10-20T00:07:03.031Z,88.00
2022-10-20T00:08:03.090Z,87.00
2022-10-20T00:09:02.670Z,87.00
2022-10-20T00:10:03.030Z,87.00
2022-10-20T00:11:03.060Z,87.00
2022-10-20T00:12:03.462Z,87.00
2022-10-20T00:13:03.155Z,87.00
2022-10-20T00:14:02.963Z,86.00
2022-10-20T00:15:03.445Z,86.00
2022-10-20T00:16:03.315Z,86.00
2022-10-20T00:17:03.479Z,86.00
2022-10-20T00:18:03.440Z,86.00
2022-10-20T00:19:03.836Z,85.00
2022-10-20T00:20:03.575Z,86.00
2022-10-20T00:21:03.506Z,86.00
2022-10-20T00:22:02.374Z,86.00
2022-10-20T00:23:02.865Z,86.00
2022-10-20T00:24:02.743Z,86.00
2022-10-20T00:25:02.522Z,86.00
2022-10-20T00:26:03.003Z,86.00
2022-10-20T00:27:02.667Z,86.00
2022-10-20T00:28:02.849Z,86.00
2022-10-20T00:29:02.914Z,86.00
2022-10-20T00:30:02.751Z,86.00
2022-10-20T00:31:02.969Z,87.00
2022-10-20T00:32:02.913Z,87.00
2022-10-20T00:33:02.897Z,86.00
2022-10-20T00:34:03.349Z,87.00
2022-10-20T00:35:03.211Z,87.00
2022-10-20T00:36:03.369Z,87.00
2022-10-20T00:37:03.153Z,87.00
2022-10-20T00:38:03.227Z,87.00
2022-10-20T00:39:03.605Z,87.00
2022-10-20T00:40:03.121Z,87.00
2022-10-20T00:41:03.319Z,86.00
2022-10-20T00:42:03.133Z,86.00
2022-10-20T00:43:03.752Z,86.00
2022-10-20T00:44:03.378Z,86.00
2022-10-20T00:45:03.561Z,85.00
2022-10-20T00:46:03.736Z,85.00
2022-10-20T00:47:02.393Z,84.00
2022-10-20T00:48:02.484Z,84.00
2022-10-20T00:49:02.831Z,84.00
2022-10-20T00:50:02.845Z,84.00
2022-10-20T00:51:02.698Z,83.00
2022-10-20T00:52:02.561Z,83.00
2022-10-20T00:53:02.533Z,83.00
2022-10-20T00:54:02.812Z,83.00
2022-10-20T00:55:02.660Z,83.00
2022-10-20T00:56:02.472Z,83.00
2022-10-20T00:58:03.443Z,83.00
2022-10-20T00:59:03.194Z,83.00
2022-10-20T01:00:03.549Z,83.00
2022-10-20T01:01:03.126Z,82.00
2022-10-20T01:02:03.004Z,82.00
2022-10-20T01:03:02.913Z,82.00
2022-10-20T01:04:02.733Z,82.00
2022-10-20T01:05:03.161Z,82.00
2022-10-20T01:06:02.951Z,82.00
2022-10-20T01:07:03.432Z,81.00
2022-10-20T01:08:03.883Z,81.00
2022-10-20T01:09:03.472Z,81.00
2022-10-20T01:10:03.624Z,81.00
2022-10-20T01:11:03.429Z,80.00
2022-10-20T01:12:02.999Z,80.00
2022-10-20T01:13:03.164Z,80.00
2022-10-20T01:14:02.956Z,80.00
2022-10-20T01:15:02.998Z,80.00
2022-10-20T01:16:02.884Z,80.00
2022-10-20T01:17:03.380Z,80.00
2022-10-20T01:18:03.626Z,80.00
2022-10-20T01:19:03.484Z,80.00
2022-10-20T01:20:03.260Z,80.00
2022-10-20T01:21:03.654Z,79.00
2022-10-20T01:22:02.788Z,80.00
2022-10-20T01:23:02.583Z,80.00
2022-10-20T01:24:03.063Z,80.00
2022-10-20T01:25:02.927Z,80.00
2022-10-20T01:26:02.719Z,80.00
2022-10-20T01:27:03.482Z,80.00
2022-10-20T01:28:03.277Z,80.00
2022-10-20T01:29:03.053Z,81.00
2022-10-20T01:30:03.598Z,80.00
2022-10-20T01:31:03.077Z,80.00
2022-10-20T01:32:03.268Z,81.00
2022-10-20T01:33:03.634Z,80.00
2022-10-20T01:34:03.728Z,80.00
2022-10-20T01:35:03.464Z,80.00
2022-10-20T01:36:03.258Z,79.00
2022-10-20T01:37:02.833Z,80.00
2022-10-20T01:38:02.609Z,79.00
2022-10-20T01:39:03.101Z,79.00
2022-10-20T01:40:02.893Z,80.00
2022-10-20T01:41:02.766Z,81.00
2022-10-20T01:42:03.502Z,80.00
2022-10-20T01:43:03.369Z,81.00
2022-10-20T01:44:03.306Z,81.00
2022-10-20T01:45:03.174Z,81.00
2022-10-20T01:46:03.041Z,80.00
2022-10-20T01:47:03.585Z,80.00
2022-10-20T01:48:03.452Z,81.00
2022-10-20T01:49:03.363Z,81.00
2022-10-20T01:50:03.527Z,81.00
2022-10-20T01:51:03.583Z,82.00
2022-10-20T01:52:03.546Z,82.00
2022-10-20T01:53:03.260Z,81.00
2022-10-20T01:54:03.418Z,82.00
2022-10-20T01:55:03.099Z,83.00
2022-10-20T01:56:03.137Z,83.00
2022-10-20T01:57:03.624Z,84.00
2022-10-20T01:58:03.870Z,84.00
2022-10-20T01:59:03.615Z,84.00
2022-10-20T02:00:03.312Z,85.00
2022-10-20T02:01:03.821Z,86.00
2022-10-20T02:02:03.424Z,86.00
2022-10-20T02:03:03.192Z,85.00
2022-10-20T02:04:03.539Z,85.00
2022-10-20T02:05:03.507Z,85.00
2022-10-20T02:06:03.579Z,85.00
2022-10-20T02:07:02.517Z,85.00
2022-10-20T02:08:02.566Z,85.00
2022-10-20T02:09:02.472Z,85.00
2022-10-20T02:10:02.935Z,84.00
2022-10-20T02:11:02.862Z,85.00
2022-10-20T02:12:03.402Z,85.00
2022-10-20T02:13:03.245Z,84.00
2022-10-20T02:14:03.504Z,85.00
2022-10-20T02:15:03.247Z,86.00
2022-10-20T02:16:03.096Z,86.00
2022-10-20T02:17:02.893Z,86.00
2022-10-20T02:18:02.983Z,86.00
2022-10-20T02:19:02.398Z,86.00
2022-10-20T02:20:02.330Z,87.00
2022-10-20T02:21:02.873Z,87.00
2022-10-20T02:22:02.882Z,86.00
2022-10-20T02:23:03.364Z,87.00
2022-10-20T02:24:03.195Z,87.00
2022-10-20T02:25:03.373Z,87.00
2022-10-20T02:26:03.325Z,86.00
2022-10-20T02:27:02.451Z,86.00
2022-10-20T02:28:02.517Z,86.00
2022-10-20T02:29:02.956Z,86.00
2022-10-20T02:30:02.513Z,86.00
2022-10-20T02:31:02.946Z,85.00
2022-10-20T02:32:03.022Z,85.00
2022-10-20T02:33:02.831Z,85.00
2022-10-20T02:34:02.717Z,85.00
2022-10-20T02:35:05.163Z,85.00
2022-10-20T02:36:02.981Z,85.00
2022-10-20T02:37:03.499Z,85.00
2022-10-20T02:38:03.472Z,85.00
2022-10-20T02:39:02.883Z,84.00
2022-10-20T02:40:03.450Z,84.00
2022-10-20T02:41:03.396Z,85.00
2022-10-20T02:42:02.982Z,84.00
2022-10-20T02:43:02.774Z,84.00
2022-10-20T02:44:02.314Z,84.00
2022-10-20T02:45:02.785Z,84.00
2022-10-20T02:46:02.645Z,83.00
2022-10-20T02:47:02.791Z,83.00
2022-10-20T02:48:05.165Z,83.00
2022-10-20T02:49:02.958Z,83.00
2022-10-20T02:50:02.812Z,83.00
2022-10-20T02:51:02.603Z,82.00
2022-10-20T02:52:02.207Z,82.00
2022-10-20T02:53:02.693Z,82.00
2022-10-20T02:54:02.452Z,82.00
2022-10-20T02:55:02.363Z,82.00
2022-10-20T02:56:02.178Z,82.00
2022-10-20T02:57:03.058Z,81.00
2022-10-20T02:58:02.806Z,81.00
2022-10-20T02:59:02.745Z,82.00
2022-10-20T03:00:03.186Z,81.00
2022-10-20T03:01:02.919Z,81.00
2022-10-20T03:02:02.778Z,81.00
2022-10-20T03:03:03.274Z,81.00
2022-10-20T03:04:02.799Z,81.00
2022-10-20T03:05:02.767Z,82.00
2022-10-20T03:06:02.764Z,82.00
2022-10-20T03:07:02.413Z,81.00
2022-10-20T03:08:02.284Z,81.00
2022-10-20T03:09:02.726Z,81.00
2022-10-20T03:10:02.388Z,81.00
2022-10-20T03:11:02.446Z,81.00
2022-10-20T03:12:01.962Z,81.00
2022-10-20T03:13:02.416Z,81.00
2022-10-20T03:14:02.132Z,82.00
2022-10-20T03:15:01.974Z,82.00
2022-10-20T03:16:02.009Z,82.00
2022-10-20T03:17:03.078Z,82.00
2022-10-20T03:18:02.492Z,82.00
2022-10-20T03:19:05.351Z,82.00
2022-10-20T03:20:02.450Z,82.00
2022-10-20T03:21:02.850Z,82.00
2022-10-20T03:22:02.624Z,83.00
2022-10-20T03:23:02.973Z,83.00
2022-10-20T03:24:02.940Z,82.00
2022-10-20T03:25:02.743Z,82.00
2022-10-20T03:26:02.785Z,82.00
2022-10-20T03:27:02.696Z,82.00
2022-10-20T03:28:02.601Z,82.00
2022-10-20T03:29:02.206Z,82.00
2022-10-20T03:30:02.830Z,82.00
2022-10-20T03:31:02.382Z,82.00
2022-10-20T03:32:03.142Z,82.00
2022-10-20T03:33:02.785Z,82.00
2022-10-20T03:34:02.585Z,83.00
2022-10-20T03:35:02.600Z,83.00
2022-10-20T03:36:02.724Z,83.00
2022-10-20T03:37:02.719Z,83.00
2022-10-20T03:38:02.108Z,83.00
2022-10-20T03:39:02.577Z,83.00
2022-10-20T03:40:02.333Z,83.00
2022-10-20T03:42:02.789Z,83.00
2022-10-20T03:43:02.695Z,83.00
2022-10-20T03:44:02.577Z,83.00
2022-10-20T03:45:02.490Z,83.00
2022-10-20T03:46:03.087Z,82.00
2022-10-20T03:47:02.494Z,82.00
2022-10-20T03:48:02.591Z,82.00
2022-10-20T03:49:02.546Z,82.00
2022-10-20T03:50:02.694Z,82.00
2022-10-20T03:51:02.422Z,82.00
2022-10-20T03:52:03.009Z,82.00
2022-10-20T03:53:03.189Z,82.00
2022-10-20T03:54:02.750Z,82.00
2022-10-20T03:55:02.679Z,82.00
2022-10-20T03:56:02.700Z,82.00
2022-10-20T03:57:06.794Z,82.00
2022-10-20T03:58:02.142Z,82.00
2022-10-20T04:00:02.035Z,82.00
2022-10-20T04:01:02.159Z,82.00
2022-10-20T04:02:02.795Z,82.00
2022-10-20T04:03:02.693Z,82.00
2022-10-20T04:04:02.626Z,82.00
2022-10-20T04:05:02.513Z,81.00
2022-10-20T04:06:02.429Z,81.00
2022-10-20T04:07:02.902Z,82.00
2022-10-20T04:08:03.178Z,82.00
2022-10-20T04:09:02.768Z,82.00
2022-10-20T04:10:02.931Z,81.00
2022-10-20T04:11:02.797Z,81.00
2022-10-20T04:12:02.383Z,81.00
2022-10-20T04:13:01.913Z,81.00
2022-10-20T04:14:02.053Z,81.00
2022-10-20T04:15:01.968Z,81.00
2022-10-20T04:16:01.834Z,81.00
2022-10-20T04:17:02.345Z,81.00
2022-10-20T04:18:01.904Z,81.00
2022-10-20T04:19:02.531Z,81.00
2022-10-20T04:20:02.206Z,81.00
2022-10-20T04:21:01.868Z,81.00
2022-10-20T04:22:02.210Z,80.00
2022-10-20T04:23:02.562Z,81.00
2022-10-20T04:24:02.439Z,81.00
2022-10-20T04:25:02.597Z,81.00
2022-10-20T04:26:02.443Z,80.00
2022-10-20T04:27:03.115Z,80.00
2022-10-20T04:28:03.056Z,80.00
2022-10-20T04:29:02.964Z,80.00
2022-10-20T04:30:02.951Z,81.00
2022-10-20T04:31:03.340Z,81.00
2022-10-20T04:32:02.915Z,81.00
2022-10-20T04:33:02.624Z,81.00
2022-10-20T04:34:02.568Z,81.00
2022-10-20T04:35:02.918Z,81.00
2022-10-20T04:36:02.642Z,81.00
2022-10-20T04:37:02.932Z,81.00
2022-10-20T04:38:02.527Z,80.00
2022-10-20T04:39:02.527Z,80.00
2022-10-20T04:40:02.945Z,80.00
2022-10-20T04:41:04.217Z,80.00
2022-10-20T04:42:02.985Z,80.00
2022-10-20T04:43:02.914Z,80.00
2022-10-20T04:44:03.091Z,80.00
2022-10-20T04:45:03.036Z,80.00
2022-10-20T04:46:06.908Z,80.00
2022-10-20T04:47:03.035Z,80.00
2022-10-20T04:48:02.604Z,80.00
2022-10-20T04:49:02.457Z,80.00
2022-10-20T04:50:02.463Z,80.00
2022-10-20T04:51:02.942Z,79.00
2022-10-20T04:52:02.469Z,79.00
2022-10-20T04:53:02.153Z,79.00
2022-10-20T04:54:02.507Z,80.00
2022-10-20T04:55:02.194Z,80.00
2022-10-20T04:56:02.091Z,80.00
2022-10-20T04:57:02.546Z,79.00
2022-10-20T04:58:02.488Z,79.00
2022-10-20T04:59:02.172Z,79.00
2022-10-20T05:00:02.655Z,79.00
2022-10-20T05:01:02.238Z,79.00
2022-10-20T05:02:02.825Z,79.00
2022-10-20T05:03:02.490Z,79.00
2022-10-20T05:04:02.414Z,79.00
2022-10-20T05:05:02.184Z,79.00
2022-10-20T05:06:02.641Z,79.00
2022-10-20T05:07:02.421Z,79.00
2022-10-20T05:08:03.004Z,79.00
2022-10-20T05:09:02.568Z,79.00
2022-10-20T05:10:02.546Z,79.00
2022-10-20T05:11:02.443Z,79.00
2022-10-20T05:12:02.225Z,79.00
2022-10-20T05:13:02.043Z,79.00
2022-10-20T05:14:02.619Z,79.00
2022-10-20T05:15:02.136Z,79.00
2022-10-20T05:16:02.365Z,79.00
2022-10-20T05:17:04.204Z,79.00
2022-10-20T05:18:02.701Z,79.00
2022-10-20T05:19:02.178Z,78.00
2022-10-20T05:20:02.727Z,78.00
2022-10-20T05:21:08.950Z,79.00
2022-10-20T05:22:02.934Z,79.00
2022-10-20T05:23:02.567Z,79.00
2022-10-20T05:24:02.649Z,78.00
2022-10-20T05:25:24.554Z,78.00
2022-10-20T05:26:02.926Z,79.00
2022-10-20T05:27:02.617Z,78.00
2022-10-20T05:28:03.070Z,79.00
2022-10-20T05:29:02.951Z,79.00
2022-10-20T05:30:03.508Z,79.00
2022-10-20T05:31:02.665Z,79.00
2022-10-20T05:32:02.860Z,78.00
2022-10-20T05:33:02.826Z,79.00
2022-10-20T05:34:02.385Z,78.00
2022-10-20T05:35:02.893Z,78.00
2022-10-20T05:36:02.540Z,78.00
2022-10-20T05:37:02.604Z,78.00
2022-10-20T05:38:02.614Z,78.00
2022-10-20T05:39:02.706Z,78.00
2022-10-20T05:40:02.830Z,78.00
2022-10-20T05:41:02.894Z,78.00
2022-10-20T05:42:03.122Z,78.00
2022-10-20T05:43:02.927Z,78.00
2022-10-20T05:44:03.208Z,78.00
2022-10-20T05:45:03.058Z,79.00
2022-10-20T05:46:03.343Z,79.00
2022-10-20T05:47:02.841Z,79.00
2022-10-20T05:48:02.426Z,79.00
2022-10-20T05:49:02.776Z,79.00
2022-10-20T05:50:02.520Z,79.00
2022-10-20T05:51:02.345Z,79.00
2022-10-20T05:52:03.080Z,79.00
2022-10-20T05:53:03.075Z,79.00
2022-10-20T05:54:02.870Z,79.00
2022-10-20T05:55:03.496Z,79.00
2022-10-20T05:56:02.986Z,79.00
2022-10-20T05:57:02.930Z,79.00
2022-10-20T05:58:02.834Z,79.00
2022-10-20T05:59:02.736Z,79.00
2022-10-20T06:00:02.856Z,79.00
2022-10-20T06:01:02.356Z,79.00
2022-10-20T06:02:02.499Z,79.00
2022-10-20T06:03:02.409Z,79.00
2022-10-20T06:04:01.840Z,79.00
2022-10-20T06:05:02.354Z,79.00
2022-10-20T06:06:02.353Z,79.00
2022-10-20T06:07:02.589Z,79.00
2022-10-20T06:08:02.503Z,79.00
2022-10-20T06:09:02.774Z,79.00
2022-10-20T06:10:02.711Z,79.00
2022-10-20T06:11:02.546Z,79.00
2022-10-20T06:12:02.263Z,79.00
2022-10-20T06:13:02.032Z,79.00
2022-10-20T06:14:02.118Z,79.00
2022-10-20T06:15:02.588Z,79.00
2022-10-20T06:16:02.316Z,79.00
2022-10-20T06:17:02.779Z,79.00
2022-10-20T06:18:02.928Z,79.00
2022-10-20T06:19:02.476Z,79.00
2022-10-20T06:20:02.623Z,79.00
2022-10-20T06:21:02.567Z,79.00
2022-10-20T06:22:05.541Z,79.00
2022-10-20T06:23:01.968Z,80.00
2022-10-20T06:24:02.402Z,79.00
2022-10-20T06:25:02.411Z,79.00
2022-10-20T06:26:02.291Z,80.00
2022-10-20T06:27:02.178Z,79.00
2022-10-20T06:28:01.961Z,79.00
2022-10-20T06:29:04.605Z,80.00
2022-10-20T06:30:02.332Z,79.00
2022-10-20T06:31:02.343Z,79.00
2022-10-20T06:32:02.054Z,79.00
2022-10-20T06:33:02.037Z,80.00
2022-10-20T06:34:02.224Z,79.00
2022-10-20T06:35:02.402Z,79.00
2022-10-20T06:36:02.356Z,79.00
2022-10-20T06:37:02.104Z,79.00
2022-10-20T06:38:02.676Z,79.00
2022-10-20T06:39:02.365Z,79.00
2022-10-20T06:40:02.293Z,79.00
2022-10-20T06:41:02.636Z,78.00
2022-10-20T06:42:02.590Z,79.00
2022-10-20T06:43:02.801Z,78.00
2022-10-20T06:44:02.538Z,79.00
2022-10-20T06:45:02.258Z,79.00
2022-10-20T06:46:02.723Z,79.00
2022-10-20T06:47:02.563Z,79.00
2022-10-20T06:48:02.638Z,79.00
2022-10-20T06:49:02.656Z,79.00
2022-10-20T06:50:02.630Z,79.00
2022-10-20T06:51:02.533Z,79.00
2022-10-20T06:52:01.660Z,79.00
2022-10-20T06:53:01.665Z,79.00
2022-10-20T06:54:01.764Z,79.00
2022-10-20T06:55:01.788Z,78.00
2022-10-20T06:56:01.721Z,79.00
2022-10-20T06:57:02.453Z,79.00
2022-10-20T06:58:02.091Z,79.00
2022-10-20T06:59:02.143Z,78.00
2022-10-20T07:00:02.373Z,79.00
2022-10-20T07:01:04.470Z,78.00
2022-10-20T07:02:03.169Z,79.00
2022-10-20T07:03:03.090Z,78.00
2022-10-20T07:04:02.902Z,78.00
2022-10-20T07:05:03.549Z,79.00
2022-10-20T07:06:03.199Z,79.00
2022-10-20T07:07:02.761Z,78.00
2022-10-20T07:08:02.741Z,79.00
2022-10-20T07:09:03.025Z,78.00
2022-10-20T07:10:02.842Z,78.00
2022-10-20T07:11:02.466Z,78.00
2022-10-20T07:12:02.743Z,79.00
2022-10-20T07:13:03.004Z,78.00
2022-10-20T07:14:03.490Z,78.00
2022-10-20T07:15:02.869Z,78.00
2022-10-20T07:16:03.234Z,78.00
2022-10-20T07:17:02.685Z,78.00
2022-10-20T07:18:02.749Z,78.00
2022-10-20T07:19:02.214Z,78.00
2022-10-20T07:20:02.720Z,78.00
2022-10-20T07:21:02.604Z,78.00
2022-10-20T07:22:02.978Z,78.00
2022-10-20T07:23:03.035Z,78.00
2022-10-20T07:24:02.499Z,78.00
2022-10-20T07:25:03.113Z,78.00
2022-10-20T07:26:02.726Z,78.00
2022-10-20T07:27:03.488Z,78.00
2022-10-20T07:28:03.546Z,78.00
2022-10-20T07:29:03.528Z,78.00
2022-10-20T07:30:02.971Z,78.00
2022-10-20T07:31:03.546Z,78.00
2022-10-20T07:32:02.991Z,78.00
2022-10-20T07:33:03.091Z,78.00
2022-10-20T07:34:26.117Z,78.00
2022-10-20T07:35:02.951Z,78.00
2022-10-20T07:36:02.832Z,78.00
2022-10-20T07:37:03.570Z,78.00
2022-10-20T07:38:03.504Z,77.00
2022-10-20T07:39:03.486Z,77.00
2022-10-20T07:40:03.089Z,78.00
2022-10-20T07:41:03.641Z,78.00
2022-10-20T07:42:03.035Z,78.00
2022-10-20T07:43:03.071Z,78.00
2022-10-20T07:44:03.107Z,78.00
2022-10-20T07:45:03.197Z,77.00
2022-10-20T07:46:03.068Z,77.00
2022-10-20T07:47:03.633Z,77.00
2022-10-20T07:48:03.575Z,77.00
2022-10-20T07:50:03.193Z,77.00
2022-10-20T07:51:03.538Z,77.00
2022-10-20T07:52:03.158Z,77.00
2022-10-20T07:53:02.871Z,77.00
2022-10-20T07:54:02.536Z,77.00
2022-10-20T07:55:12.462Z,77.00
2022-10-20T07:56:02.658Z,77.00
2022-10-20T07:57:03.500Z,77.00
2022-10-20T07:58:03.203Z,77.00
2022-10-20T07:59:03.168Z,77.00
2022-10-20T08:00:02.766Z,77.00
2022-10-20T08:01:03.155Z,77.00
2022-10-20T08:02:02.876Z,77.00
2022-10-20T08:03:02.753Z,77.00
2022-10-20T08:04:02.342Z,76.00
2022-10-20T08:05:02.863Z,77.00
2022-10-20T08:06:02.402Z,77.00
2022-10-20T08:07:02.379Z,77.00
2022-10-20T08:08:02.913Z,77.00
2022-10-20T08:09:02.972Z,77.00
2022-10-20T08:10:02.874Z,77.00
2022-10-20T08:11:02.951Z,77.00
2022-10-20T08:12:02.983Z,77.00
2022-10-20T08:13:02.833Z,77.00
2022-10-20T08:14:03.077Z,77.00
2022-10-20T08:15:03.412Z,77.00
2022-10-20T08:16:02.733Z,77.00
2022-10-20T08:17:02.434Z,77.00
2022-10-20T08:18:02.411Z,77.00
2022-10-20T08:19:03.090Z,76.00
2022-10-20T08:21:02.533Z,77.00
2022-10-20T08:22:02.066Z,77.00
2022-10-20T08:23:02.101Z,77.00
2022-10-20T08:24:02.342Z,77.00
2022-10-20T08:25:02.566Z,77.00
2022-10-20T08:26:02.087Z,77.00
2022-10-20T08:27:02.667Z,77.00
2022-10-20T08:28:02.757Z,77.00
2022-10-20T08:29:02.645Z,76.00
2022-10-20T08:30:22.370Z,77.00
2022-10-20T08:31:02.687Z,77.00
2022-10-20T08:32:01.982Z,76.00
2022-10-20T08:33:02.118Z,76.00
2022-10-20T08:34:02.020Z,76.00
2022-10-20T08:35:02.030Z,76.00
2022-10-20T08:36:02.113Z,76.00
2022-10-20T08:37:02.249Z,77.00
2022-10-20T08:38:02.473Z,77.00
2022-10-20T08:39:05.231Z,76.00
2022-10-20T08:40:02.476Z,76.00
2022-10-20T08:41:02.312Z,76.00
2022-10-20T08:42:08.591Z,76.00
2022-10-20T08:43:02.318Z,76.00
2022-10-20T08:44:02.261Z,76.00
2022-10-20T08:45:02.083Z,76.00
2022-10-20T08:46:02.716Z,76.00
2022-10-20T08:47:02.625Z,76.00
2022-10-20T08:48:02.951Z,76.00
2022-10-20T08:49:02.396Z,76.00
2022-10-20T08:50:02.940Z,76.00
2022-10-20T08:51:02.742Z,76.00
2022-10-20T08:52:02.730Z,76.00
2022-10-20T08:53:03.072Z,76.00
2022-10-20T08:54:02.838Z,76.00
2022-10-20T08:55:02.904Z,76.00
2022-10-20T08:56:02.963Z,76.00
2022-10-20T08:57:02.754Z,76.00
2022-10-20T08:58:03.156Z,76.00
2022-10-20T08:59:03.485Z,76.00
2022-10-20T09:00:06.817Z,76.00
2022-10-20T09:01:02.880Z,76.00
2022-10-20T09:02:03.157Z,76.00
2022-10-20T09:03:03.087Z,77.00
2022-10-20T09:04:03.489Z,77.00
2022-10-20T09:05:03.468Z,77.00
2022-10-20T09:06:02.947Z,77.00
2022-10-20T09:07:03.261Z,77.00
2022-10-20T09:08:03.658Z,77.00
2022-10-20T09:09:03.167Z,77.00
2022-10-20T09:10:03.573Z,77.00
2022-10-20T09:11:03.561Z,77.00
2022-10-20T09:12:03.213Z,77.00
2022-10-20T09:13:03.501Z,77.00
2022-10-20T09:14:03.564Z,77.00
2022-10-20T09:15:03.526Z,77.00
2022-10-20T09:16:03.511Z,77.00
2022-10-20T09:17:02.914Z,77.00
2022-10-20T09:18:02.798Z,77.00
2022-10-20T09:19:02.950Z,77.00
2022-10-20T09:20:03.120Z,77.00
2022-10-20T09:21:03.307Z,77.00
2022-10-20T09:22:03.107Z,77.00
2022-10-20T09:23:07.989Z,77.00
2022-10-20T09:24:03.154Z,77.00
2022-10-20T09:25:03.183Z,77.00
2022-10-20T09:26:03.105Z,77.00
2022-10-20T09:27:02.849Z,77.00
2022-10-20T09:28:02.931Z,77.00
2022-10-20T09:29:12.840Z,77.00
2022-10-20T09:30:02.951Z,77.00
2022-10-20T09:31:03.013Z,77.00
2022-10-20T09:32:16.805Z,77.00
2022-10-20T09:33:03.663Z,77.00
2022-10-20T09:34:03.166Z,77.00
2022-10-20T09:35:03.154Z,77.00
2022-10-20T09:36:03.528Z,77.00
2022-10-20T09:37:02.836Z,77.00
2022-10-20T09:38:02.794Z,77.00
2022-10-20T09:39:02.688Z,77.00
2022-10-20T09:40:02.791Z,77.00
2022-10-20T09:41:02.563Z,77.00
2022-10-20T09:43:03.299Z,77.00
2022-10-20T09:44:03.487Z,77.00
2022-10-20T09:45:03.494Z,76.00
2022-10-20T09:46:03.473Z,77.00
2022-10-20T09:47:03.238Z,77.00
2022-10-20T09:48:03.510Z,77.00
2022-10-20T09:49:03.488Z,77.00
2022-10-20T09:50:03.130Z,77.00
2022-10-20T09:51:03.176Z,77.00
2022-10-20T09:52:03.510Z,77.00
2022-10-20T09:53:03.614Z,77.00
2022-10-20T09:54:03.728Z,77.00
2022-10-20T09:55:03.623Z,77.00
2022-10-20T09:56:03.539Z,77.00
2022-10-20T09:57:03.276Z,77.00
2022-10-20T09:58:03.477Z,77.00
2022-10-20T09:59:03.190Z,76.00
2022-10-20T10:00:18.870Z,76.00
2022-10-20T10:01:03.461Z,76.00
2022-10-20T10:02:02.903Z,76.00
2022-10-20T10:03:02.969Z,76.00
2022-10-20T10:04:03.714Z,76.00
2022-10-20T10:05:02.958Z,76.00
2022-10-20T10:06:02.782Z,76.00
2022-10-20T10:07:02.588Z,77.00
2022-10-20T10:08:02.636Z,78.00
2022-10-20T10:09:02.553Z,78.00
2022-10-20T10:10:05.608Z,78.00
2022-10-20T10:11:02.319Z,79.00
2022-10-20T10:12:02.775Z,79.00
2022-10-20T10:13:02.644Z,79.00
2022-10-20T10:14:02.583Z,79.00
2022-10-20T10:15:02.433Z,79.00
2022-10-20T10:16:02.831Z,79.00
2022-10-20T10:17:03.413Z,79.00
2022-10-20T10:18:03.237Z,79.00
2022-10-20T10:19:03.395Z,80.00
2022-10-20T10:20:02.983Z,79.00
2022-10-20T10:21:03.032Z,79.00
2022-10-20T10:22:03.118Z,79.00
2022-10-20T10:23:02.858Z,79.00
2022-10-20T10:24:03.032Z,79.00
2022-10-20T10:25:02.916Z,79.00
2022-10-20T10:26:03.344Z,78.00
2022-10-20T10:27:03.247Z,79.00
2022-10-20T10:28:02.941Z,78.00
2022-10-20T10:29:02.993Z,79.00
2022-10-20T10:30:02.917Z,79.00
2022-10-20T10:31:02.964Z,79.00
2022-10-20T10:32:03.666Z,79.00
2022-10-20T10:33:03.199Z,78.00
2022-10-20T10:34:03.435Z,78.00
2022-10-20T10:35:03.359Z,78.00
2022-10-20T10:36:03.156Z,79.00
2022-10-20T10:37:02.599Z,78.00
2022-10-20T10:38:03.093Z,79.00
2022-10-20T10:39:03.117Z,79.00
2022-10-20T10:40:02.776Z,79.00
2022-10-20T10:41:02.651Z,79.00
2022-10-20T10:42:02.679Z,79.00
2022-10-20T10:43:02.926Z,79.00
2022-10-20T10:44:03.006Z,78.00
2022-10-20T10:45:03.036Z,79.00
2022-10-20T10:46:03.286Z,79.00
2022-10-20T10:47:03.492Z,79.00
2022-10-20T10:48:02.896Z,79.00
2022-10-20T10:49:02.915Z,79.00
2022-10-20T10:50:02.716Z,79.00
2022-10-20T10:51:02.599Z,79.00
2022-10-20T10:52:02.916Z,79.00
2022-10-20T10:53:02.552Z,78.00
2022-10-20T10:54:02.608Z,78.00
2022-10-20T10:55:02.116Z,79.00
2022-10-20T10:56:02.198Z,79.00
2022-10-20T10:57:02.290Z,78.00
2022-10-20T10:58:02.989Z,78.00
2022-10-20T10:59:03.110Z,79.00
2022-10-20T11:00:03.515Z,78.00
2022-10-20T11:01:03.340Z,78.00
2022-10-20T11:02:02.919Z,78.00
2022-10-20T11:03:02.579Z,78.00
2022-10-20T11:04:02.684Z,78.00
2022-10-20T11:05:02.581Z,78.00
2022-10-20T11:06:02.417Z,78.00
2022-10-20T11:07:02.725Z,78.00
2022-10-20T11:08:02.580Z,78.00
2022-10-20T11:09:02.431Z,78.00
2022-10-20T11:10:02.628Z,78.00
2022-10-20T11:11:03.020Z,78.00
2022-10-20T11:12:02.831Z,78.00
2022-10-20T11:13:02.861Z,77.00
2022-10-20T11:14:02.519Z,77.00
2022-10-20T11:15:02.484Z,78.00
2022-10-20T11:16:02.507Z,78.00
2022-10-20T11:17:02.990Z,78.00
2022-10-20T11:18:02.831Z,77.00
2022-10-20T11:19:03.197Z,78.00
2022-10-20T11:20:03.283Z,79.00
2022-10-20T11:21:03.013Z,78.00
2022-10-20T11:22:02.996Z,78.00
2022-10-20T11:23:02.595Z,78.00
2022-10-20T11:24:02.694Z,78.00
2022-10-20T11:25:02.783Z,79.00
2022-10-20T11:26:02.969Z,78.00
2022-10-20T11:27:02.504Z,78.00
2022-10-20T11:28:02.807Z,78.00
2022-10-20T11:29:03.198Z,79.00
2022-10-20T11:30:02.772Z,78.00
2022-10-20T11:31:03.093Z,78.00
2022-10-20T11:32:03.197Z,78.00
2022-10-20T11:33:02.952Z,79.00
2022-10-20T11:34:03.020Z,78.00
2022-10-20T11:35:02.485Z,79.00
2022-10-20T11:36:03.046Z,78.00
2022-10-20T11:37:03.108Z,79.00
2022-10-20T11:38:03.719Z,79.00
2022-10-20T11:39:03.508Z,79.00
2022-10-20T11:40:07.552Z,79.00
2022-10-20T11:41:03.510Z,79.00
2022-10-20T11:42:03.511Z,79.00
2022-10-20T11:43:03.245Z,79.00
2022-10-20T11:44:02.700Z,80.00
2022-10-20T11:45:03.385Z,80.00
2022-10-20T11:46:03.059Z,79.00
2022-10-20T11:47:02.733Z,80.00
2022-10-20T11:48:03.555Z,80.00
2022-10-20T11:49:04.119Z,80.00
2022-10-20T11:50:03.275Z,81.00
2022-10-20T11:51:03.007Z,80.00
2022-10-20T11:52:03.027Z,81.00
2022-10-20T11:53:03.622Z,81.00
2022-10-20T11:54:03.576Z,81.00
2022-10-20T11:55:03.809Z,81.00
2022-10-20T11:56:03.592Z,81.00
2022-10-20T11:57:03.679Z,82.00
2022-10-20T11:58:03.509Z,81.00
2022-10-20T11:59:03.472Z,82.00
2022-10-20T12:00:03.197Z,82.00
2022-10-20T12:01:03.516Z,82.00
2022-10-20T12:02:03.521Z,83.00
2022-10-20T12:03:02.752Z,83.00
2022-10-20T12:04:03.082Z,83.00
2022-10-20T12:05:02.566Z,83.00
2022-10-20T12:06:07.544Z,83.00
2022-10-20T12:07:02.526Z,84.00
2022-10-20T12:08:24.543Z,84.00
2022-10-20T12:09:03.210Z,84.00
2022-10-20T12:10:02.943Z,84.00
2022-10-20T12:11:03.216Z,84.00
2022-10-20T12:12:02.895Z,84.00
2022-10-20T12:13:02.768Z,84.00
2022-10-20T12:14:03.031Z,84.00
2022-10-20T12:15:03.092Z,84.00
2022-10-20T12:16:03.146Z,84.00
2022-10-20T12:17:02.880Z,84.00
2022-10-20T12:18:02.237Z,83.00
2022-10-20T12:19:02.347Z,83.00
2022-10-20T12:20:02.613Z,84.00
2022-10-20T12:21:02.719Z,83.00
2022-10-20T12:22:02.762Z,83.00
2022-10-20T12:23:03.373Z,83.00
2022-10-20T12:24:03.505Z,83.00
2022-10-20T12:25:03.506Z,83.00
2022-10-20T12:26:03.085Z,84.00
2022-10-20T12:27:02.892Z,83.00
2022-10-20T12:28:03.209Z,83.00
2022-10-20T12:29:03.085Z,83.00
2022-10-20T12:30:03.085Z,84.00
2022-10-20T12:31:03.555Z,83.00
2022-10-20T12:32:03.340Z,83.00
2022-10-20T12:33:02.329Z,83.00
2022-10-20T12:34:02.829Z,83.00
2022-10-20T12:35:02.406Z,83.00
2022-10-20T12:36:02.518Z,84.00
2022-10-20T12:38:02.998Z,84.00
2022-10-20T12:39:02.874Z,84.00
2022-10-20T12:40:03.016Z,84.00
2022-10-20T12:41:02.867Z,84.00
2022-10-20T12:42:02.917Z,84.00
2022-10-20T12:43:03.193Z,84.00
2022-10-20T12:44:03.174Z,84.00
2022-10-20T12:45:02.778Z,84.00
2022-10-20T12:46:03.147Z,84.00
2022-10-20T12:47:03.075Z,84.00
2022-10-20T12:48:03.096Z,84.00
2022-10-20T12:49:05.563Z,84.00
2022-10-20T12:50:03.123Z,85.00
2022-10-20T12:51:03.539Z,84.00
2022-10-20T12:52:03.139Z,85.00
2022-10-20T12:53:02.439Z,84.00
2022-10-20T12:54:02.427Z,85.00
2022-10-20T12:55:02.456Z,85.00
2022-10-20T12:56:02.522Z,85.00
2022-10-20T12:57:02.511Z,85.00
2022-10-20T12:58:02.391Z,85.00
2022-10-20T12:59:02.851Z,85.00